Time;durP1;ratioP1;P1;durP2;ratioP2;P2;SDS_P1;SDS_P2;PMS_P1;PMS_P2;Temp;Humidity;BMP_temperature;BMP_pressure;BME280_temperature;BME280_humidity;BME280_pressure;Samples;Min_cycle;Max_cycle;Signal;HPM_P1;HPM_P2
2023/09/28 00:00:59;;;;;;;;;;;;;;;21.52;60.68;101222.13;4899859;29;7462;-70
2023/09/28 00:03:27;;;;;;;;;;;;;;;21.51;60.84;101220.66;4919655;29;2301;-69
2023/09/28 00:05:54;;;;;;;;;;;;;;;21.51;60.86;101226.41;4918397;29;2466;-69
2023/09/28 00:08:20;;;;;;;;;;;;;;;21.51;60.52;101220.66;4918969;29;2610;-69
2023/09/28 00:10:46;;;;;;;;;;;;;;;21.52;60.55;101225.00;4916186;29;2499;-70
2023/09/28 00:13:13;;;;;;;;;;;;;;;21.50;60.56;101219.13;4918655;29;2324;-70
2023/09/28 00:15:40;;;;;;;;;;;;;;;21.51;60.40;101217.78;4920924;29;2351;-68
2023/09/28 00:18:07;;;;;;;;;;;;;;;21.51;60.39;101214.88;4919381;29;2213;-69
2023/09/28 00:20:33;;;;;;;;;;;;;;;21.47;60.14;101218.31;4902982;29;1798;-69
2023/09/28 00:22:59;;;;;;;;;;;;;;;21.49;60.42;101211.91;4918466;29;2308;-69
2023/09/28 00:25:26;;;;;;;;;;;;;;;21.50;60.38;101214.13;4898668;29;1816;-62
2023/09/28 00:27:53;;;;;;;;;;;;;;;21.49;60.26;101212.66;4921216;29;1939;-64
2023/09/28 00:30:21;;;;;;;;;;;;;;;21.49;60.02;101211.91;4919953;28;6287;-64
2023/09/28 00:32:48;;;;;;;;;;;;;;;21.46;59.93;101205.31;4918242;29;2211;-64
2023/09/28 00:35:14;;;;;;;;;;;;;;;21.46;60.21;101213.94;4903514;29;2253;-65
2023/09/28 00:37:41;;;;;;;;;;;;;;;21.45;60.36;101211.72;4897858;29;1780;-64
2023/09/28 00:40:16;;;;;;;;;;;;;;;21.44;59.97;101210.19;4914534;29;1715;-65
2023/09/28 00:42:51;;;;;;;;;;;;;;;21.45;60.21;101211.72;4896434;29;2285;-64
2023/09/28 00:45:20;;;;;;;;;;;;;;;21.46;60.19;101202.44;4918307;29;2329;-64
2023/09/28 00:47:46;;;;;;;;;;;;;;;21.46;59.91;101204.53;4920104;29;1600;-65
2023/09/28 00:50:16;;;;;;;;;;;;;;;21.46;60.17;101195.91;4901965;29;2246;-64
2023/09/28 00:52:43;;;;;;;;;;;;;;;21.45;59.97;101191.53;4919035;29;2062;-65
2023/09/28 00:55:10;;;;;;;;;;;;;;;21.47;60.24;101195.25;4912650;29;2336;-64
2023/09/28 00:57:38;;;;;;;;;;;;;;;21.45;59.86;101194.41;4920113;29;2102;-64
2023/09/28 01:00:18;;;;;;;;;;;;;;;21.46;59.97;101195.91;4918703;29;6161;-65
2023/09/28 01:02:51;;;;;;;;;;;;;;;21.45;60.19;101194.41;4918802;29;2381;-65
2023/09/28 01:05:18;;;;;;;;;;;;;;;21.44;60.06;101193.69;4917933;29;2450;-65
2023/09/28 01:07:45;;;;;;;;;;;;;;;21.43;59.94;101191.44;4917987;29;2575;-64
2023/09/28 01:10:18;;;;;;;;;;;;;;;21.42;59.85;101189.97;4918873;29;2423;-64
2023/09/28 01:12:47;;;;;;;;;;;;;;;21.43;60.03;101189.28;4918315;29;2356;-65
2023/09/28 01:15:13;;;;;;;;;;;;;;;21.43;60.18;101185.69;4895195;29;2597;-65
2023/09/28 01:17:39;;;;;;;;;;;;;;;21.42;60.17;101184.19;4919433;29;2056;-64
2023/09/28 01:20:23;;;;;;;;;;;;;;;21.42;59.92;101176.28;4918042;29;2345;-64
2023/09/28 01:22:50;;;;;;;;;;;;;;;21.43;59.96;101177.03;4921691;29;1937;-64
2023/09/28 01:25:21;;;;;;;;;;;;;;;21.42;60.18;101184.19;4922673;29;2348;-64
2023/09/28 01:27:47;;;;;;;;;;;;;;;21.41;60.37;101176.94;4903519;29;2184;-64
2023/09/28 01:30:14;;;;;;;;;;;;;;;21.43;59.87;101182.81;4917353;29;6405;-64
2023/09/28 01:32:40;;;;;;;;;;;;;;;21.43;60.10;101179.91;4895098;29;2163;-64
2023/09/28 01:35:07;;;;;;;;;;;;;;;21.43;59.90;101177.03;4920619;29;1699;-65
2023/09/28 01:37:39;;;;;;;;;;;;;;;21.43;59.97;101180.66;4922041;29;2359;-64
2023/09/28 01:40:05;;;;;;;;;;;;;;;21.42;60.10;101182.06;4904883;29;2407;-64
2023/09/28 01:42:32;;;;;;;;;;;;;;;21.43;60.21;101182.81;4924365;29;2373;-64
2023/09/28 01:44:58;;;;;;;;;;;;;;;21.42;60.16;101178.44;4924178;29;2391;-64
2023/09/28 01:47:25;;;;;;;;;;;;;;;21.43;59.88;101180.66;4899739;29;2155;-63
2023/09/28 01:49:52;;;;;;;;;;;;;;;21.43;60.05;101180.66;4924050;29;2257;-65
2023/09/28 01:52:18;;;;;;;;;;;;;;;21.42;60.04;101167.66;4923359;29;1873;-64
2023/09/28 01:54:45;;;;;;;;;;;;;;;21.42;60.27;101166.91;4921283;29;2245;-65
2023/09/28 01:57:12;;;;;;;;;;;;;;;21.40;60.10;101167.56;4922174;29;2356;-64
2023/09/28 01:59:38;;;;;;;;;;;;;;;21.42;60.07;101166.91;4904562;29;2374;-64
2023/09/28 02:02:05;;;;;;;;;;;;;;;21.43;60.23;101162.63;4919657;29;6305;-65
2023/09/28 02:04:31;;;;;;;;;;;;;;;21.41;60.37;101151.75;4922781;29;2332;-64
2023/09/28 02:06:58;;;;;;;;;;;;;;;21.41;60.27;101148.13;4905964;29;1617;-64
2023/09/28 02:09:25;;;;;;;;;;;;;;;21.41;60.06;101156.78;4922154;29;2246;-64
2023/09/28 02:11:51;;;;;;;;;;;;;;;21.42;60.40;101138.09;4900732;29;2231;-65
2023/09/28 02:14:18;;;;;;;;;;;;;;;21.42;60.34;101149.63;4899508;29;2288;-64
2023/09/28 02:16:44;;;;;;;;;;;;;;;21.41;60.12;101148.13;4921795;29;2332;-64
2023/09/28 02:19:11;;;;;;;;;;;;;;;21.42;60.32;101143.88;4898731;29;2316;-65
2023/09/28 02:21:37;;;;;;;;;;;;;;;21.42;59.97;101138.84;4923186;29;2004;-65
2023/09/28 02:24:07;;;;;;;;;;;;;;;21.41;60.25;101136.59;4909274;29;2150;-65
2023/09/28 02:26:34;;;;;;;;;;;;;;;21.40;60.10;101137.97;4921129;29;2352;-64
2023/09/28 02:29:00;;;;;;;;;;;;;;;21.40;59.89;101132.22;4921780;29;2201;-65
2023/09/28 02:31:28;;;;;;;;;;;;;;;21.39;60.27;101136.47;4919138;29;6516;-64
2023/09/28 02:33:54;;;;;;;;;;;;;;;21.40;60.04;101135.88;4915514;29;1985;-64
2023/09/28 02:36:21;;;;;;;;;;;;;;;21.39;60.05;101140.09;4921403;29;2020;-65
2023/09/28 02:38:48;;;;;;;;;;;;;;;21.38;60.04;101132.13;4922802;29;2183;-64
2023/09/28 02:41:15;;;;;;;;;;;;;;;21.37;59.88;101134.25;4921175;29;2344;-64
2023/09/28 02:43:42;;;;;;;;;;;;;;;21.36;60.18;101138.53;4900511;29;1914;-65
2023/09/28 02:46:08;;;;;;;;;;;;;;;21.37;59.79;101125.59;4921941;29;2411;-64
2023/09/28 02:48:35;;;;;;;;;;;;;;;21.37;60.13;101124.84;4916436;29;2454;-64
2023/09/28 02:51:03;;;;;;;;;;;;;;;21.39;59.81;101139.34;4919444;29;2439;-65
2023/09/28 02:53:30;;;;;;;;;;;;;;;21.38;59.89;101129.25;4916647;29;2319;-64
2023/09/28 02:55:56;;;;;;;;;;;;;;;21.39;59.72;101133.59;4918375;29;2444;-65
2023/09/28 02:58:24;;;;;;;;;;;;;;;21.38;59.69;101135.75;4919521;29;2439;-64
2023/09/28 03:00:51;;;;;;;;;;;;;;;21.38;59.71;101132.13;4901878;29;6393;-64
2023/09/28 03:03:17;;;;;;;;;;;;;;;21.36;59.84;101135.66;4915002;29;2391;-64
2023/09/28 03:05:44;;;;;;;;;;;;;;;21.37;59.73;101127.75;4921621;29;2107;-64
2023/09/28 03:08:12;;;;;;;;;;;;;;;21.36;59.55;101134.91;4921773;29;2001;-64
2023/09/28 03:10:39;;;;;;;;;;;;;;;21.36;59.54;101129.16;4921107;29;2316;-65
2023/09/28 03:13:05;;;;;;;;;;;;;;;21.36;59.86;101132.03;4919268;29;2293;-64
2023/09/28 03:15:32;;;;;;;;;;;;;;;21.34;59.74;101127.63;4898788;29;2369;-64
2023/09/28 03:17:59;;;;;;;;;;;;;;;21.34;59.65;101126.91;4918414;29;2293;-64
2023/09/28 03:20:26;;;;;;;;;;;;;;;21.33;59.75;101129.03;4918865;29;2615;-64
2023/09/28 03:22:52;;;;;;;;;;;;;;;21.32;59.59;101124.66;4920933;29;2344;-64
2023/09/28 03:25:20;;;;;;;;;;;;;;;21.30;59.36;101121.72;4922803;29;2016;-65
2023/09/28 03:27:48;;;;;;;;;;;;;;;21.39;59.51;101130.72;4921194;29;2447;-64
2023/09/28 03:30:15;;;;;;;;;;;;;;;21.47;59.16;101134.75;4920675;29;6331;-66
2023/09/28 03:32:42;;;;;;;;;;;;;;;21.48;59.23;101136.22;4921903;29;1878;-64
2023/09/28 03:35:10;;;;;;;;;;;;;;;21.49;59.01;101142.75;4922459;29;1627;-64
2023/09/28 03:37:36;;;;;;;;;;;;;;;21.51;59.05;101143.59;4899450;29;2336;-64
2023/09/28 03:40:12;;;;;;;;;;;;;;;21.51;59.15;101145.72;4904273;29;2281;-64
2023/09/28 03:42:46;;;;;;;;;;;;;;;21.52;58.91;101153.72;4922928;29;1870;-64
2023/09/28 03:45:16;;;;;;;;;;;;;;;21.54;59.04;101150.19;4920596;29;1647;-64
2023/09/28 03:47:43;;;;;;;;;;;;;;;21.54;59.17;101144.44;4921510;29;2181;-64
2023/09/28 03:50:10;;;;;;;;;;;;;;;21.55;59.06;101154.53;4903675;29;2326;-64
2023/09/28 03:52:39;;;;;;;;;;;;;;;21.54;59.13;101155.94;4917910;29;2469;-64
2023/09/28 03:55:09;;;;;;;;;;;;;;;21.56;59.13;101153.16;4919930;29;2336;-64
2023/09/28 03:57:36;;;;;;;;;;;;;;;21.56;59.23;101158.94;4919664;29;2434;-64
2023/09/28 04:00:03;;;;;;;;;;;;;;;21.56;59.56;101153.16;4918764;29;2339;-64
2023/09/28 04:02:36;;;;;;;;;;;;;;;21.55;59.21;101157.44;4918985;29;6005;-64
2023/09/28 04:05:05;;;;;;;;;;;;;;;21.55;59.29;101148.78;4920708;29;1612;-64
2023/09/28 04:07:31;;;;;;;;;;;;;;;21.55;59.45;101157.44;4921285;29;2371;-64
2023/09/28 04:09:57;;;;;;;;;;;;;;;21.54;59.27;101168.22;4920775;29;2387;-64
2023/09/28 04:12:24;;;;;;;;;;;;;;;21.55;59.45;101157.44;4921227;29;2336;-64
2023/09/28 04:14:51;;;;;;;;;;;;;;;21.54;59.36;101155.94;4921729;29;1826;-64
2023/09/28 04:17:17;;;;;;;;;;;;;;;21.56;59.37;101155.31;4921053;29;1924;-64
2023/09/28 04:19:44;;;;;;;;;;;;;;;21.55;59.27;101157.44;4919595;29;2691;-64
2023/09/28 04:22:10;;;;;;;;;;;;;;;21.53;59.36;101148.69;4921826;29;1874;-64
2023/09/28 04:24:37;;;;;;;;;;;;;;;21.54;59.56;101150.91;4921204;29;2364;-64
2023/09/28 04:27:03;;;;;;;;;;;;;;;21.54;59.69;101147.31;4922327;29;1891;-63
2023/09/28 04:29:29;;;;;;;;;;;;;;;21.54;59.35;101156.69;4919452;29;2372;-64
2023/09/28 04:31:56;;;;;;;;;;;;;;;21.55;59.40;101157.44;4921774;29;6693;-64
2023/09/28 04:34:22;;;;;;;;;;;;;;;21.54;59.78;101150.91;4899524;29;1785;-64
2023/09/28 04:36:50;;;;;;;;;;;;;;;21.56;59.76;101158.19;4921276;29;1914;-64
2023/09/28 04:39:17;;;;;;;;;;;;;;;21.55;59.36;101163.19;4919574;29;2409;-64
2023/09/28 04:41:43;;;;;;;;;;;;;;;21.55;59.62;101163.19;4904194;29;2393;-64
2023/09/28 04:44:10;;;;;;;;;;;;;;;21.54;59.86;101167.47;4920132;29;1933;-64
2023/09/28 04:46:36;;;;;;;;;;;;;;;21.53;59.86;101166.75;4918813;29;2378;-64
2023/09/28 04:49:02;;;;;;;;;;;;;;;21.54;59.67;101161.72;4919244;29;2447;-64
2023/09/28 04:51:29;;;;;;;;;;;;;;;21.54;59.67;101173.25;4920667;29;1747;-64
2023/09/28 04:53:55;;;;;;;;;;;;;;;21.55;59.77;101177.59;4921285;29;1908;-64
2023/09/28 04:56:22;;;;;;;;;;;;;;;21.53;59.68;101174.63;4920986;29;2300;-64
2023/09/28 04:58:48;;;;;;;;;;;;;;;21.53;59.68;101171.72;4918063;29;2359;-64
2023/09/28 05:01:15;;;;;;;;;;;;;;;21.52;59.64;101176.75;4919112;29;6645;-65
2023/09/28 05:03:42;;;;;;;;;;;;;;;21.54;59.60;101176.13;4898087;29;2399;-64
2023/09/28 05:06:09;;;;;;;;;;;;;;;21.53;59.75;101172.50;4918500;29;2425;-67
2023/09/28 05:08:36;;;;;;;;;;;;;;;21.57;59.65;101171.94;4917184;29;2403;-67
2023/09/28 05:11:02;;;;;;;;;;;;;;;21.57;59.88;101177.69;4919859;29;2363;-67
2023/09/28 05:13:32;;;;;;;;;;;;;;;21.56;59.81;101176.22;4919726;29;2497;-70
2023/09/28 05:15:58;;;;;;;;;;;;;;;21.58;59.51;101172.66;4914230;29;2239;-72
2023/09/28 05:18:25;;;;;;;;;;;;;;;21.58;59.84;101173.44;4917559;29;2633;-72
2023/09/28 05:20:51;;;;;;;;;;;;;;;21.58;59.71;101173.44;4918547;29;2776;-74
2023/09/28 05:23:18;;;;;;;;;;;;;;;21.61;59.49;101180.75;4919486;29;2718;-73
2023/09/28 05:25:45;;;;;;;;;;;;;;;21.60;59.70;101170.66;4919635;29;2581;-73
2023/09/28 05:28:12;;;;;;;;;;;;;;;21.62;59.81;101182.25;4921359;29;1659;-73
2023/09/28 05:30:38;;;;;;;;;;;;;;;21.64;59.46;101176.56;4919728;29;6109;-73
2023/09/28 05:33:04;;;;;;;;;;;;;;;21.73;59.97;101175.56;4918826;29;3839;-71
2023/09/28 05:35:31;;;;;;;;;;;;;;;21.84;59.50;101176.03;4921437;29;2304;-71
2023/09/28 05:37:57;;;;;;;;;;;;;;;21.88;59.67;101176.22;4920322;29;1914;-73
2023/09/28 05:40:25;;;;;;;;;;;;;;;21.92;59.33;101182.16;4927329;29;1918;-71
2023/09/28 05:42:51;;;;;;;;;;;;;;;21.75;59.56;101192.94;4921238;29;2377;-69
2023/09/28 05:45:18;;;;;;;;;;;;;;;21.84;59.61;101187.56;4921944;29;2538;-70
2023/09/28 05:47:44;;;;;;;;;;;;;;;21.79;59.71;101185.91;4920321;29;2517;-71
2023/09/28 05:50:11;;;;;;;;;;;;;;;21.79;59.65;101191.66;4920733;29;2363;-74
2023/09/28 05:52:38;;;;;;;;;;;;;;;21.90;59.66;101187.84;4919534;29;1604;-77
2023/09/28 05:55:04;;;;;;;;;;;;;;;21.92;59.18;101187.91;4898352;29;2590;-76
2023/09/28 05:57:30;;;;;;;;;;;;;;;21.94;59.33;101190.88;4920670;29;2426;-75
2023/09/28 05:59:57;;;;;;;;;;;;;;;21.98;59.32;101185.31;4902502;29;2483;-76
2023/09/28 06:02:23;;;;;;;;;;;;;;;21.94;59.40;101202.44;4920404;28;6035;-77
2023/09/28 06:04:50;;;;;;;;;;;;;;;21.91;59.42;101197.97;4914938;29;2677;-76
2023/09/28 06:07:16;;;;;;;;;;;;;;;21.91;59.10;101203.75;4918179;29;2911;-76
2023/09/28 06:09:42;;;;;;;;;;;;;;;21.89;59.30;101206.53;4919943;29;3078;-75
2023/09/28 06:12:09;;;;;;;;;;;;;;;21.81;59.45;101206.16;4923621;29;3151;-74
2023/09/28 06:14:36;;;;;;;;;;;;;;;21.83;59.58;101206.25;4919745;29;2698;-72
2023/09/28 06:17:02;;;;;;;;;;;;;;;21.94;60.00;101202.44;4922173;29;2667;-74
2023/09/28 06:19:28;;;;;;;;;;;;;;;22.08;59.01;101205.97;4921179;29;2692;-71
2023/09/28 06:21:57;;;;;;;;;;;;;;;22.10;59.23;101206.03;4920796;29;4746;-71
2023/09/28 06:24:25;;;;;;;;;;;;;;;22.13;59.10;101204.75;4920117;29;4458;-72
2023/09/28 06:26:53;;;;;;;;;;;;;;;22.15;59.08;101209.84;4922689;29;2604;-71
2023/09/28 06:29:19;;;;;;;;;;;;;;;22.19;59.02;101210.03;4922648;29;2776;-69
2023/09/28 06:31:46;;;;;;;;;;;;;;;22.17;58.90;101207.06;4920607;29;6219;-76
2023/09/28 06:34:13;;;;;;;;;;;;;;;22.16;58.74;101206.31;4904089;29;2606;-76
2023/09/28 06:36:39;;;;;;;;;;;;;;;22.17;58.79;101219.34;4923271;29;2644;-74
2023/09/28 06:39:08;;;;;;;;;;;;;;;22.11;58.67;101221.97;4919616;29;2644;-75
2023/09/28 06:41:35;;;;;;;;;;;;;;;22.16;58.95;101223.63;4920672;29;2673;-74
2023/09/28 06:44:02;;;;;;;;;;;;;;;22.17;58.78;101225.13;4922127;29;2653;-75
2023/09/28 06:46:28;;;;;;;;;;;;;;;22.20;58.72;101220.19;4918947;29;4915;-75
2023/09/28 06:48:55;;;;;;;;;;;;;;;22.20;58.65;101219.44;4921141;29;4332;-74
2023/09/28 06:51:22;;;;;;;;;;;;;;;22.05;58.83;101218.78;4903043;29;4624;-75
2023/09/28 06:53:49;;;;;;;;;;;;;;;22.02;58.84;101219.38;4924174;29;1991;-80
2023/09/28 06:56:16;;;;;;;;;;;;;;;21.99;58.85;101221.41;4897882;29;2809;-73
2023/09/28 06:58:42;;;;;;;;;;;;;;;22.01;59.10;101218.59;4899057;29;2617;-75
2023/09/28 07:01:09;;;;;;;;;;;;;;;21.88;59.25;101222.34;4920432;29;6162;-74
2023/09/28 07:03:36;;;;;;;;;;;;;;;21.42;60.30;101213.00;4920097;29;2731;-77
2023/09/28 07:06:04;;;;;;;;;;;;;;;21.40;60.24;101212.88;4921999;29;2600;-77
2023/09/28 07:08:30;;;;;;;;;;;;;;;21.25;60.34;101220.81;4921581;29;2656;-76
2023/09/28 07:10:57;;;;;;;;;;;;;;;21.28;60.13;101228.19;4918364;29;4755;-76
2023/09/28 07:13:24;;;;;;;;;;;;;;;21.30;60.16;101227.53;4921963;29;2782;-77
2023/09/28 07:15:51;;;;;;;;;;;;;;;21.30;60.40;101231.16;4921288;29;2671;-77
2023/09/28 07:18:17;;;;;;;;;;;;;;;21.28;60.51;101236.06;4921485;29;2666;-76
2023/09/28 07:20:44;;;;;;;;;;;;;;;21.28;60.31;101244.72;4922478;29;2438;-76
2023/09/28 07:23:10;;;;;;;;;;;;;;;21.26;60.66;101248.25;4922506;29;1786;-76
2023/09/28 07:25:37;;;;;;;;;;;;;;;21.27;60.60;101235.31;4921329;29;5029;-76
2023/09/28 07:28:04;;;;;;;;;;;;;;;21.20;61.26;101236.44;4921093;29;2736;-76
2023/09/28 07:30:30;;;;;;;;;;;;;;;21.37;60.91;101243.72;4920739;29;6370;-74
2023/09/28 07:32:57;;;;;;;;;;;;;;;21.54;60.26;101248.16;4921345;29;2637;-75
2023/09/28 07:35:23;;;;;;;;;;;;;;;21.56;59.99;101245.38;4885859;29;2639;-75
2023/09/28 07:37:50;;;;;;;;;;;;;;;21.65;60.19;101252.28;4920386;29;2670;-73
2023/09/28 07:40:17;;;;;;;;;;;;;;;21.65;60.52;101258.78;4920999;29;2660;-73
2023/09/28 07:42:59;;;;;;;;;;;;;;;21.71;60.63;101266.94;4922955;29;2548;-73
2023/09/28 07:45:25;;;;;;;;;;;;;;;21.74;60.51;101266.41;4919499;29;2643;-72
2023/09/28 07:47:52;;;;;;;;;;;;;;;21.74;60.18;101265.69;4920774;29;2891;-73
2023/09/28 07:50:18;;;;;;;;;;;;;;;21.70;60.41;101259.72;4919478;29;2584;-74
2023/09/28 07:52:45;;;;;;;;;;;;;;;21.73;60.30;101264.91;4919967;29;2600;-74
2023/09/28 07:55:13;;;;;;;;;;;;;;;21.75;60.61;101262.13;4919498;29;2601;-71
2023/09/28 07:57:40;;;;;;;;;;;;;;;21.74;60.64;101263.53;4918254;29;4715;-74
2023/09/28 08:00:21;;;;;;;;;;;;;;;21.74;60.92;101254.16;4917465;29;6398;-74
2023/09/28 08:02:48;;;;;;;;;;;;;;;21.78;61.03;101262.97;4917385;29;2705;-76
2023/09/28 08:05:14;;;;;;;;;;;;;;;21.81;60.86;101267.44;4919510;29;4799;-74
2023/09/28 08:07:42;;;;;;;;;;;;;;;21.84;61.05;101256.75;4919668;29;2643;-73
2023/09/28 08:10:17;;;;;;;;;;;;;;;21.87;60.85;101261.22;4920089;29;2637;-73
2023/09/28 08:12:46;;;;;;;;;;;;;;;21.87;61.21;101255.44;4918899;29;2659;-73
2023/09/28 08:15:15;;;;;;;;;;;;;;;21.88;61.17;101251.19;4920439;29;2583;-73
2023/09/28 08:18:01;;;;;;;;;;;;;;;21.89;60.76;101259.16;4920026;29;2636;-72
2023/09/28 08:20:27;;;;;;;;;;;;;;;21.90;60.90;101257.03;4920266;29;2568;-71
2023/09/28 08:22:57;;;;;;;;;;;;;;;21.91;60.69;101262.13;4918984;29;2658;-72
2023/09/28 08:25:24;;;;;;;;;;;;;;;21.92;60.33;101275.19;4897323;29;2680;-72
2023/09/28 08:27:51;;;;;;;;;;;;;;;21.90;60.48;101277.22;4919564;29;2647;-75
2023/09/28 08:30:18;;;;;;;;;;;;;;;21.92;60.35;101280.19;4918293;29;6149;-75
2023/09/28 08:32:45;;;;;;;;;;;;;;;21.91;60.66;101272.94;4915307;29;4951;-74
2023/09/28 08:35:12;;;;;;;;;;;;;;;22.06;60.73;101283.75;4919119;29;2631;-75
2023/09/28 08:37:38;;;;;;;;;;;;;;;22.07;61.11;101285.22;4919037;29;3029;-74
2023/09/28 09:00:52;;;;;;;;;;;;;;;22.26;61.80;101300.50;4782158;29;2277;-69
2023/09/28 09:03:21;;;;;;;;;;;;;;;22.23;61.07;101296.03;4785333;29;2479;-68
2023/09/28 09:05:47;;;;;;;;;;;;;;;22.23;60.71;101290.28;4801112;29;3293;-69
2023/09/28 09:08:14;;;;;;;;;;;;;;;22.26;61.16;101288.97;4779051;29;2522;-68
2023/09/28 09:10:40;;;;;;;;;;;;;;;22.18;61.38;101300.84;4795883;29;1940;-76
2023/09/28 09:13:16;;;;;;;;;;;;;;;22.18;61.15;101304.47;4794554;29;2902;-72
2023/09/28 09:15:46;;;;;;;;;;;;;;;22.36;62.36;101298.09;4793930;29;3293;-85
2023/09/28 09:18:15;;;;;;;;;;;;;;;22.37;61.13;101288.03;4795690;29;2007;-80
2023/09/28 09:20:42;;;;;;;;;;;;;;;22.38;60.74;101289.53;4797336;29;1379;-82
2023/09/28 09:23:12;;;;;;;;;;;;;;;22.34;61.22;101298.72;4797837;29;2054;-80
2023/09/28 09:25:42;;;;;;;;;;;;;;;22.33;61.15;101293.59;4803778;29;1434;-76
2023/09/28 09:28:08;;;;;;;;;;;;;;;22.24;60.91;101289.63;4796814;29;2048;-81
2023/09/28 09:30:35;;;;;;;;;;;;;;;22.34;61.42;101295.84;4796948;29;2070;-78
2023/09/28 09:33:04;;;;;;;;;;;;;;;22.32;60.77;101295.00;4804384;29;2000;-84
2023/09/28 09:35:31;;;;;;;;;;;;;;;22.30;61.37;101289.16;4807199;29;1280;-79
2023/09/28 09:37:57;;;;;;;;;;;;;;;22.42;61.42;101288.94;4807511;29;1912;-82
2023/09/28 09:40:25;;;;;;;;;;;;;;;22.43;61.48;101282.53;4805263;29;2038;-80
2023/09/28 09:42:52;;;;;;;;;;;;;;;22.42;61.26;101288.94;4797244;29;2055;-82
2023/09/28 09:45:18;;;;;;;;;;;;;;;22.37;61.20;101288.75;4798286;29;2012;-81
2023/09/28 09:47:48;;;;;;;;;;;;;;;22.40;61.20;101292.47;4800793;29;2007;-83
2023/09/28 09:50:16;;;;;;;;;;;;;;;22.41;61.05;101282.44;4801140;29;1983;-80
2023/09/28 09:52:42;;;;;;;;;;;;;;;22.46;60.76;101281.22;4805308;29;1394;-82
2023/09/28 09:55:09;;;;;;;;;;;;;;;22.46;60.61;101289.13;4797221;29;2046;-84
2023/09/28 09:57:36;;;;;;;;;;;;;;;22.46;60.78;101286.25;4789286;29;1981;-82
2023/09/28 10:00:06;;;;;;;;;;;;;;;22.44;60.68;101286.91;4803994;29;1441;-82
2023/09/28 10:02:32;;;;;;;;;;;;;;;22.35;61.15;101293.69;4806062;29;2193;-80
2023/09/28 10:04:59;;;;;;;;;;;;;;;22.40;61.06;101289.59;4774363;29;2475;-84
2023/09/28 10:07:26;;;;;;;;;;;;;;;22.53;61.02;101288.00;4778814;29;3461;-83
2023/09/28 10:10:12;;;;;;;;;;;;;;;22.40;60.95;101285.97;4786699;29;2522;-74
2023/09/28 10:12:39;;;;;;;;;;;;;;;22.28;61.19;101283.28;4782156;29;6298;-75
2023/09/28 10:15:06;;;;;;;;;;;;;;;22.44;61.07;101286.91;4768195;29;2554;-75
2023/09/28 10:17:33;;;;;;;;;;;;;;;22.35;61.15;101285.78;4784405;29;2666;-84
2023/09/28 10:20:02;;;;;;;;;;;;;;;22.42;61.30;101291.84;4769279;29;3835;-84
2023/09/28 10:22:28;;;;;;;;;;;;;;;22.47;61.44;101297.16;4782020;29;2778;-74
2023/09/28 10:24:55;;;;;;;;;;;;;;;22.49;61.32;101290.72;4788797;29;2680;-75
2023/09/28 10:27:21;;;;;;;;;;;;;;;22.46;61.40;101295.66;4765722;29;3834;-76
2023/09/28 10:29:48;;;;;;;;;;;;;;;22.45;61.66;101290.53;4785550;29;2305;-77
2023/09/28 10:32:27;;;;;;;;;;;;;;;22.42;61.81;101288.94;4785914;29;6239;-77
2023/09/28 10:35:13;;;;;;;;;;;;;;;22.47;61.41;101297.16;4787901;29;2831;-77
2023/09/28 10:37:39;;;;;;;;;;;;;;;22.49;61.62;101299.38;4785060;29;2690;-78
2023/09/28 10:40:06;;;;;;;;;;;;;;;22.47;61.71;101296.38;4788205;29;2535;-77
2023/09/28 10:42:34;;;;;;;;;;;;;;;22.44;61.93;101291.94;4782947;29;2732;-75
2023/09/28 10:45:01;;;;;;;;;;;;;;;22.49;61.72;101294.34;4785706;29;3163;-75
2023/09/28 10:47:31;;;;;;;;;;;;;;;22.50;61.78;101298.72;4768817;29;2870;-76
2023/09/28 10:49:58;;;;;;;;;;;;;;;22.51;61.77;101287.91;4786894;29;3014;-75
2023/09/28 10:52:24;;;;;;;;;;;;;;;22.57;62.80;101291.81;4784465;29;2836;-73
2023/09/28 10:54:51;;;;;;;;;;;;;;;22.63;61.73;101296.38;4783677;29;2744;-75
2023/09/28 10:57:17;;;;;;;;;;;;;;;22.56;61.56;101290.34;4783854;29;3885;-74
2023/09/28 10:59:44;;;;;;;;;;;;;;;22.55;61.58;101288.84;4784254;29;2692;-74
2023/09/28 11:02:11;;;;;;;;;;;;;;;22.57;61.35;101283.16;4784668;29;6101;-74
2023/09/28 11:04:37;;;;;;;;;;;;;;;22.55;61.49;101285.22;4784625;29;2752;-75
2023/09/28 11:07:17;;;;;;;;;;;;;;;22.59;61.50;101306.34;4781718;29;3858;-76
2023/09/28 11:09:43;;;;;;;;;;;;;;;22.63;61.40;101305.03;4786126;29;1946;-75
2023/09/28 11:12:10;;;;;;;;;;;;;;;22.62;61.47;101303.53;4782053;29;2789;-74
2023/09/28 11:14:40;;;;;;;;;;;;;;;22.62;61.35;101307.16;4782571;29;2677;-75
2023/09/28 11:17:07;;;;;;;;;;;;;;;22.60;61.12;101312.84;4781556;29;2832;-76
2023/09/28 11:19:34;;;;;;;;;;;;;;;22.64;60.78;101315.19;4785043;29;2772;-76
2023/09/28 11:22:00;;;;;;;;;;;;;;;22.65;60.87;101316.66;4783740;29;2638;-74
2023/09/28 11:24:27;;;;;;;;;;;;;;;22.65;60.78;101310.88;4770255;29;2719;-75
2023/09/28 11:26:53;;;;;;;;;;;;;;;22.64;60.35;101307.25;4781977;29;2657;-76
2023/09/28 11:29:20;;;;;;;;;;;;;;;22.80;60.30;101313.00;4782598;29;2565;-78
2023/09/28 11:31:50;;;;;;;;;;;;;;;22.76;60.56;101304.16;4783484;29;6107;-77
2023/09/28 11:34:26;;;;;;;;;;;;;;;22.76;60.39;101295.50;4788512;29;2700;-73
2023/09/28 11:36:54;;;;;;;;;;;;;;;22.77;60.57;101294.13;4788081;29;2594;-83
2023/09/28 11:39:20;;;;;;;;;;;;;;;23.03;64.17;101299.56;4770282;29;3802;-75
2023/09/28 11:41:57;;;;;;;;;;;;;;;22.98;61.15;101293.56;4789460;29;1894;-84
2023/09/28 11:44:26;;;;;;;;;;;;;;;22.83;60.83;101303.03;4772227;29;2196;-77
2023/09/28 11:46:53;;;;;;;;;;;;;;;22.86;62.13;101312.50;4787690;29;2296;-77
2023/09/28 11:49:20;;;;;;;;;;;;;;;23.15;63.66;101302.94;4785016;29;3748;-75
2023/09/28 11:51:46;;;;;;;;;;;;;;;23.21;62.98;101301.06;4772215;29;2116;-75
2023/09/28 11:54:13;;;;;;;;;;;;;;;23.30;62.82;101296.38;4787991;29;1715;-75
2023/09/28 11:56:40;;;;;;;;;;;;;;;23.39;62.11;101291.66;4785289;29;2328;-76
2023/09/28 11:59:07;;;;;;;;;;;;;;;23.42;61.64;101285.28;4780851;29;2346;-76
2023/09/28 12:01:34;;;;;;;;;;;;;;;23.45;61.17;101283.22;4782912;29;6392;-77
2023/09/28 12:04:01;;;;;;;;;;;;;;;23.49;61.09;101282.66;4786455;29;2339;-76
2023/09/28 12:06:28;;;;;;;;;;;;;;;23.51;60.72;101288.53;4783431;29;2465;-79
2023/09/28 12:08:55;;;;;;;;;;;;;;;23.50;60.52;101287.03;4782399;29;2634;-78
2023/09/28 12:11:21;;;;;;;;;;;;;;;23.43;60.50;101286.03;4781833;29;2590;-77
2023/09/28 12:13:48;;;;;;;;;;;;;;;23.46;60.39;101281.09;4784850;29;2641;-76
2023/09/28 12:16:15;;;;;;;;;;;;;;;23.51;59.89;101286.38;4784935;29;2614;-78
2023/09/28 12:18:41;;;;;;;;;;;;;;;23.41;60.11;101283.81;4785147;29;2430;-79
2023/09/28 12:21:08;;;;;;;;;;;;;;;23.53;59.85;101288.59;4779301;29;2584;-79
2023/09/28 12:23:35;;;;;;;;;;;;;;;23.56;59.57;101293.06;4781051;29;2597;-78
2023/09/28 12:26:02;;;;;;;;;;;;;;;23.40;59.32;101288.09;4783084;29;2699;-79
2023/09/28 12:28:29;;;;;;;;;;;;;;;23.29;59.57;101289.09;4779645;29;3725;-80
2023/09/28 12:30:56;;;;;;;;;;;;;;;23.24;60.65;101286.69;4782025;29;6661;-80
2023/09/28 12:33:23;;;;;;;;;;;;;;;23.23;59.71;101283.06;4782875;29;3809;-80
2023/09/28 12:35:49;;;;;;;;;;;;;;;23.23;59.72;101291.75;4787718;29;2288;-79
2023/09/28 12:38:16;;;;;;;;;;;;;;;23.27;59.50;101285.38;4780054;29;3884;-79
2023/09/28 12:40:42;;;;;;;;;;;;;;;23.37;59.25;101286.53;4787753;29;3393;-77
2023/09/28 12:43:09;;;;;;;;;;;;;;;23.44;59.24;101281.00;4784854;29;2522;-77
2023/09/28 12:45:36;;;;;;;;;;;;;;;23.48;58.95;101284.03;4770125;29;2422;-76
2023/09/28 12:48:03;;;;;;;;;;;;;;;23.51;59.12;101279.84;4784357;29;2198;-77
2023/09/28 12:50:29;;;;;;;;;;;;;;;23.54;58.97;101290.09;4782743;29;2614;-77
2023/09/28 12:52:56;;;;;;;;;;;;;;;23.52;58.89;101287.84;4787379;29;2644;-74
2023/09/28 12:55:22;;;;;;;;;;;;;;;23.68;59.22;101284.13;4783831;29;3910;-76
2023/09/28 12:57:50;;;;;;;;;;;;;;;23.83;58.63;101284.03;4785742;29;3319;-74
2023/09/28 13:00:17;;;;;;;;;;;;;;;23.81;58.46;101280.34;4783952;29;6242;-75
2023/09/28 13:02:46;;;;;;;;;;;;;;;23.54;59.19;101278.53;4785207;29;3715;-79
2023/09/28 13:05:16;;;;;;;;;;;;;;;23.48;59.23;101276.13;4772277;29;2425;-81
2023/09/28 13:07:42;;;;;;;;;;;;;;;23.54;59.26;101276.38;4783978;29;2562;-77
2023/09/28 13:10:14;;;;;;;;;;;;;;;23.71;58.85;101274.09;4783088;29;2673;-77